Time;durP1;ratioP1;P1;durP2;ratioP2;P2;SDS_P1;SDS_P2;PMS_P1;PMS_P2;Temp;Humidity;BMP_temperature;BMP_pressure;BME280_temperature;BME280_humidity;BME280_pressure;Samples;Min_cycle;Max_cycle;Signal;HPM_P1;HPM_P2
2023/02/19 00:00:24;;;;;;;;;;;;;;;28.16;54.96;101077.88;5091954;27;66887;-37
2023/02/19 00:02:56;;;;;;;;;;;;;;;28.19;54.95;101082.88;5092632;27;70077;-38
2023/02/19 00:05:26;;;;;;;;;;;;;;;28.22;54.95;101087.88;5091043;27;66351;-36
2023/02/19 00:07:57;;;;;;;;;;;;;;;28.23;55.70;101089.56;5089024;27;69107;-35
2023/02/19 00:10:27;;;;;;;;;;;;;;;28.24;55.49;101085.81;5071917;27;66975;-37
2023/02/19 00:12:57;;;;;;;;;;;;;;;28.28;56.04;101081.69;5067270;27;70478;-37
2023/02/19 00:15:27;;;;;;;;;;;;;;;28.33;57.04;101083.78;5088411;27;66405;-37
2023/02/19 00:17:57;;;;;;;;;;;;;;;28.40;60.28;101080.09;5095850;27;70620;-38
2023/02/19 00:20:28;;;;;;;;;;;;;;;28.42;63.78;101093.41;5093999;27;66049;-36
2023/02/19 00:22:58;;;;;;;;;;;;;;;28.36;66.34;101095.03;5080198;27;69825;-38
2023/02/19 00:25:28;;;;;;;;;;;;;;;28.37;67.23;101095.88;5085504;27;65937;-37
2023/02/19 00:27:58;;;;;;;;;;;;;;;28.32;68.54;101099.16;5089320;27;70068;-37
2023/02/19 00:30:29;;;;;;;;;;;;;;;28.33;68.06;101111.59;5086005;27;65511;-36
2023/02/19 00:32:59;;;;;;;;;;;;;;;28.28;68.75;101119.47;5090928;27;68240;-36
2023/02/19 00:35:29;;;;;;;;;;;;;;;28.25;68.74;101122.53;5092877;27;66185;-37
2023/02/19 00:37:59;;;;;;;;;;;;;;;28.27;69.05;101123.19;5099522;27;69913;-36
2023/02/19 00:40:29;;;;;;;;;;;;;;;28.29;68.40;101121.97;5074162;27;66570;-36
2023/02/19 00:42:59;;;;;;;;;;;;;;;28.41;69.21;101129.50;5075231;27;70050;-35
2023/02/19 00:45:30;;;;;;;;;;;;;;;28.46;68.60;101138.69;5086121;27;66368;-36
2023/02/19 00:48:00;;;;;;;;;;;;;;;28.55;68.89;101135.84;5058421;27;70693;-39
2023/02/19 00:50:30;;;;;;;;;;;;;;;28.61;68.40;101148.53;5092518;27;66832;-37
2023/02/19 00:53:00;;;;;;;;;;;;;;;28.59;66.75;101151.47;5094952;27;69922;-37
2023/02/19 00:55:30;;;;;;;;;;;;;;;28.61;65.61;101151.25;5084545;27;66391;-38
2023/02/19 00:58:00;;;;;;;;;;;;;;;28.64;64.75;101157.09;5064122;27;70021;-37
2023/02/19 01:00:32;;;;;;;;;;;;;;;28.68;64.33;101165.63;5094710;27;66405;-37
2023/02/19 01:03:02;;;;;;;;;;;;;;;28.72;64.13;101161.47;5074525;27;70409;-39
2023/02/19 01:05:32;;;;;;;;;;;;;;;28.75;64.07;101158.38;5074710;27;66589;-37
2023/02/19 01:08:03;;;;;;;;;;;;;;;28.90;67.72;101167.19;5091961;27;69416;-37
2023/02/19 01:10:33;;;;;;;;;;;;;;;28.94;67.14;101168.44;5088252;27;67620;-37
2023/02/19 01:13:04;;;;;;;;;;;;;;;28.93;67.23;101165.97;5093080;27;70093;-37
2023/02/19 01:15:34;;;;;;;;;;;;;;;28.94;67.53;101168.44;5088298;27;66326;-37
2023/02/19 01:18:04;;;;;;;;;;;;;;;28.97;68.06;101172.63;5085604;27;69481;-37
2023/02/19 01:20:37;;;;;;;;;;;;;;;28.99;68.50;101175.13;5072145;27;65635;-37
2023/02/19 01:23:07;;;;;;;;;;;;;;;29.04;68.38;101170.00;5085931;27;70400;-38
2023/02/19 01:25:38;;;;;;;;;;;;;;;29.06;68.33;101170.63;5096088;27;66260;-39
2023/02/19 01:28:10;;;;;;;;;;;;;;;29.10;68.39;101177.28;5097100;27;70265;-40
2023/02/19 01:30:40;;;;;;;;;;;;;;;29.13;68.20;101187.69;5092889;27;66988;-37
2023/02/19 01:33:10;;;;;;;;;;;;;;;29.13;68.76;101182.28;5071158;28;70768;-38
2023/02/19 01:35:40;;;;;;;;;;;;;;;29.17;68.24;101205.19;5093072;27;65329;-40
2023/02/19 01:38:10;;;;;;;;;;;;;;;29.18;68.84;101201.44;5078677;27;70457;-37
2023/02/19 01:40:52;;;;;;;;;;;;;;;29.21;68.99;101201.03;5094593;27;66209;-38
2023/02/19 01:43:22;;;;;;;;;;;;;;;29.25;68.48;101213.09;5075102;27;70715;-38
2023/02/19 01:45:53;;;;;;;;;;;;;;;29.28;69.32;101201.91;5090306;27;66829;-38
2023/02/19 01:48:26;;;;;;;;;;;;;;;29.25;69.17;101215.78;5091733;27;69430;-39
2023/02/19 01:51:03;;;;;;;;;;;;;;;29.24;67.47;101224.13;5096855;27;65397;-39
2023/02/19 01:53:37;;;;;;;;;;;;;;;29.27;66.84;101221.00;5098124;27;70058;-37
2023/02/19 01:56:08;;;;;;;;;;;;;;;29.28;66.45;101223.53;5101351;27;66679;-39
2023/02/19 01:58:39;;;;;;;;;;;;;;;29.31;65.72;101217.72;5069820;27;69288;-38
2023/02/19 02:01:09;;;;;;;;;;;;;;;29.35;65.78;101218.13;5080722;27;66578;-37
2023/02/19 02:03:41;;;;;;;;;;;;;;;29.37;65.44;101219.59;5087960;27;70234;-37
2023/02/19 02:06:23;;;;;;;;;;;;;;;29.40;65.30;101221.91;5093138;27;66603;-40
2023/02/19 02:11:47;;;;;;;;;;;;;;;29.47;64.97;101221.06;5093771;27;66533;-37
2023/02/19 02:14:19;;;;;;;;;;;;;;;29.50;64.96;101226.06;5092271;27;70277;-37
2023/02/19 02:16:54;;;;;;;;;;;;;;;29.52;64.34;101224.00;5072672;27;65311;-37
2023/02/19 02:19:43;;;;;;;;;;;;;;;29.54;64.41;101225.47;5079435;27;68943;-39
2023/02/19 02:22:13;;;;;;;;;;;;;;;29.58;64.42;101225.91;5098851;27;66599;-39
2023/02/19 02:24:53;;;;;;;;;;;;;;;29.60;64.56;101232.75;5082484;27;70385;-37
2023/02/19 02:27:41;;;;;;;;;;;;;;;29.63;64.43;101231.56;5093757;27;66160;-37
2023/02/19 02:30:18;;;;;;;;;;;;;;;29.64;64.32;101219.69;5066023;27;69881;-38
2023/02/19 02:33:00;;;;;;;;;;;;;;;29.67;63.88;101222.03;5087889;27;65505;-37
2023/02/19 02:35:33;;;;;;;;;;;;;;;29.70;64.09;101220.75;5099191;27;70693;-38
2023/02/19 02:38:06;;;;;;;;;;;;;;;29.72;63.66;101218.69;5081113;27;66716;-37
2023/02/19 02:40:40;;;;;;;;;;;;;;;29.73;63.61;101218.50;5097773;27;70084;-38
2023/02/19 02:43:12;;;;;;;;;;;;;;;29.76;64.08;101219.97;5096642;27;66002;-38
2023/02/19 02:45:43;;;;;;;;;;;;;;;29.78;63.50;101228.69;5096700;27;69847;-38
2023/02/19 02:48:31;;;;;;;;;;;;;;;29.79;64.00;101231.19;5071316;27;66503;-37
2023/02/19 02:51:02;;;;;;;;;;;;;;;29.82;63.60;101229.94;5072939;28;70907;-38
2023/02/19 02:56:30;;;;;;;;;;;;;;;29.87;64.00;101218.53;5099475;27;71144;-37
2023/02/19 02:59:03;;;;;;;;;;;;;;;29.89;63.52;101224.53;5076613;27;65587;-38
2023/02/19 03:07:39;;;;;;;;;;;;;;;29.97;63.76;101217.06;5080027;27;70803;-39
2023/02/19 03:10:11;;;;;;;;;;;;;;;30.00;63.79;101221.22;5089299;27;67139;-38
2023/02/19 03:21:16;;;;;;;;;;;;;;;30.10;63.55;101200.03;5086769;27;66617;-39
2023/02/19 03:26:37;;;;;;;;;;;;;;;30.14;63.60;101198.56;5092246;27;65531;-38
2023/02/19 03:29:22;;;;;;;;;;;;;;;30.17;63.28;101187.34;5080556;27;69941;-38
2023/02/19 03:32:02;;;;;;;;;;;;;;;30.20;64.06;101188.78;5072083;27;67060;-38
2023/02/19 03:34:55;;;;;;;;;;;;;;;30.17;64.64;101187.34;5091518;27;70127;-38
2023/02/19 03:37:28;;;;;;;;;;;;;;;30.12;64.91;101179.00;5052352;27;66281;-41
2023/02/19 03:40:00;;;;;;;;;;;;;;;30.09;64.89;101181.28;5091757;27;69951;-41
2023/02/19 03:42:35;;;;;;;;;;;;;;;30.06;65.35;101177.13;5074487;27;66357;-39
2023/02/19 03:45:13;;;;;;;;;;;;;;;30.06;65.47;101177.13;5090975;27;69962;-39
2023/02/19 03:48:02;;;;;;;;;;;;;;;30.07;65.16;101173.38;5078709;27;66477;-40
2023/02/19 03:50:47;;;;;;;;;;;;;;;30.08;65.23;101169.63;5076689;27;70037;-40
2023/02/19 03:53:29;;;;;;;;;;;;;;;30.08;65.33;101172.34;5071304;27;65256;-38
2023/02/19 03:55:59;;;;;;;;;;;;;;;30.15;65.66;101158.81;5090100;27;70442;-38
2023/02/19 03:58:52;;;;;;;;;;;;;;;30.25;64.46;101154.66;5066741;27;65778;-41
2023/02/19 04:01:29;;;;;;;;;;;;;;;30.30;63.59;101147.81;5085741;27;70418;-40
2023/02/19 04:04:21;;;;;;;;;;;;;;;30.33;63.13;101150.09;5092670;27;67014;-41
2023/02/19 04:06:55;;;;;;;;;;;;;;;30.32;61.33;101135.72;5070022;27;70418;-39
2023/02/19 04:09:32;;;;;;;;;;;;;;;30.36;61.78;101133.44;5073998;27;66098;-39
2023/02/19 04:12:08;;;;;;;;;;;;;;;30.38;62.47;101120.53;5071577;27;70733;-38
2023/02/19 04:14:54;;;;;;;;;;;;;;;30.42;63.86;101116.34;5089734;27;67284;-39
2023/02/19 04:17:28;;;;;;;;;;;;;;;30.40;64.81;101105.75;5097182;27;70172;-40
2023/02/19 04:20:00;;;;;;;;;;;;;;;30.43;65.25;101101.78;5092784;27;66109;-41
2023/02/19 04:22:31;;;;;;;;;;;;;;;30.42;64.98;101098.25;5095578;27;69777;-38
2023/02/19 04:25:01;;;;;;;;;;;;;;;30.42;64.94;101094.69;5091154;27;65579;-38
2023/02/19 04:27:33;;;;;;;;;;;;;;;30.44;65.14;101093.44;5086429;27;69790;-40
2023/02/19 04:30:05;;;;;;;;;;;;;;;30.45;64.98;101086.13;5092332;27;65728;-41
2023/02/19 04:32:35;;;;;;;;;;;;;;;30.46;64.93;101075.09;5092147;27;69772;-40
2023/02/19 04:35:05;;;;;;;;;;;;;;;30.50;64.77;101075.50;5076481;27;67022;-40
2023/02/19 04:37:36;;;;;;;;;;;;;;;30.49;64.61;101063.84;5077861;27;68329;-41
2023/02/19 04:40:07;;;;;;;;;;;;;;;30.53;63.84;101058.84;5091851;27;66381;-38
2023/02/19 04:42:37;;;;;;;;;;;;;;;30.54;63.87;101054.28;5095128;27;69616;-40
2023/02/19 04:45:08;;;;;;;;;;;;;;;30.55;64.13;101040.50;5095815;27;67036;-38
2023/02/19 04:47:38;;;;;;;;;;;;;;;30.60;63.86;101043.41;5084210;27;70333;-38
2023/02/19 04:50:08;;;;;;;;;;;;;;;30.68;63.37;101037.75;5090960;27;67014;-38
2023/02/19 04:52:39;;;;;;;;;;;;;;;30.75;62.44;101042.28;5092359;27;69630;-40
2023/02/19 04:55:09;;;;;;;;;;;;;;;30.81;62.16;101033.34;5095313;27;66953;-38
2023/02/19 04:57:39;;;;;;;;;;;;;;;30.86;61.82;101030.81;5093745;27;70548;-40
2023/02/19 05:00:12;;;;;;;;;;;;;;;30.91;61.74;101022.88;5088971;27;66023;-41
2023/02/19 05:02:43;;;;;;;;;;;;;;;30.95;61.32;101024.09;5071693;27;69292;-40
2023/02/19 05:05:13;;;;;;;;;;;;;;;31.00;61.36;101020.72;5087206;27;66664;-40
2023/02/19 05:07:43;;;;;;;;;;;;;;;31.02;61.38;101008.63;5073435;27;69577;-40
2023/02/19 05:10:14;;;;;;;;;;;;;;;31.05;61.05;101008.19;5084029;27;66751;-38
2023/02/19 05:12:44;;;;;;;;;;;;;;;31.07;60.97;101003.41;5087531;27;70350;-40
2023/02/19 05:15:14;;;;;;;;;;;;;;;30.92;61.40;100992.88;5087890;27;65968;-40
2023/02/19 05:17:44;;;;;;;;;;;;;;;30.62;58.67;100992.59;5085572;27;70277;-39
2023/02/19 05:20:14;;;;;;;;;;;;;;;30.37;56.88;100984.38;5093247;27;66181;-40
2023/02/19 05:22:44;;;;;;;;;;;;;;;30.13;55.49;100983.16;5091526;27;69642;-40
2023/02/19 05:25:15;;;;;;;;;;;;;;;29.99;53.93;100973.44;5089462;27;66414;-37
2023/02/19 05:27:45;;;;;;;;;;;;;;;29.80;52.26;100967.84;5090377;27;70180;-38
2023/02/19 05:30:15;;;;;;;;;;;;;;;29.69;51.69;100971.19;5092989;27;66478;-38
2023/02/19 05:32:46;;;;;;;;;;;;;;;29.65;51.42;100964.56;5092171;27;70590;-38
2023/02/19 05:35:16;;;;;;;;;;;;;;;29.54;50.76;100951.66;5093731;27;66147;-38
2023/02/19 05:37:46;;;;;;;;;;;;;;;29.48;50.63;100955.19;5092035;27;69824;-38
2023/02/19 05:40:16;;;;;;;;;;;;;;;29.45;49.75;100948.34;5072199;27;65284;-37
2023/02/19 05:42:46;;;;;;;;;;;;;;;29.40;49.27;100942.72;5090940;27;70313;-38
2023/02/19 05:45:16;;;;;;;;;;;;;;;29.30;48.98;100940.44;5092792;27;66661;-38
2023/02/19 05:47:47;;;;;;;;;;;;;;;29.26;48.04;100927.56;5094197;27;70456;-39
2023/02/19 05:50:17;;;;;;;;;;;;;;;29.24;48.77;100927.75;5092481;27;66448;-37
2023/02/19 05:52:47;;;;;;;;;;;;;;;29.23;48.26;100918.00;5089003;27;69934;-41
2023/02/19 05:55:18;;;;;;;;;;;;;;;29.24;47.97;100913.41;5093515;27;67078;-39
2023/02/19 05:57:48;;;;;;;;;;;;;;;29.20;47.34;100906.75;5095973;27;70756;-37
2023/02/19 06:00:19;;;;;;;;;;;;;;;29.18;46.59;100898.88;5098821;27;66284;-40
2023/02/19 06:02:49;;;;;;;;;;;;;;;29.16;47.14;100896.38;5094335;27;68778;-38
2023/02/19 06:05:19;;;;;;;;;;;;;;;29.16;46.64;100890.16;5093147;27;65001;-39
2023/02/19 06:07:49;;;;;;;;;;;;;;;29.16;46.77;100885.56;5089226;27;69076;-39
2023/02/19 06:10:20;;;;;;;;;;;;;;;29.13;46.32;100877.06;5075704;27;66257;-39
2023/02/19 06:12:53;;;;;;;;;;;;;;;29.10;45.94;100885.56;5091207;27;70413;-39
2023/02/19 06:15:24;;;;;;;;;;;;;;;29.20;46.64;100869.78;5069815;27;66650;-35
2023/02/19 06:17:54;;;;;;;;;;;;;;;29.31;45.67;100862.91;5101256;27;70269;-40
2023/02/19 06:20:24;;;;;;;;;;;;;;;29.34;45.29;100859.81;5097251;27;66619;-37
2023/02/19 06:22:54;;;;;;;;;;;;;;;29.40;44.05;100848.97;5097829;27;70661;-39
2023/02/19 06:25:24;;;;;;;;;;;;;;;29.42;43.73;100846.06;5098041;27;66575;-37
2023/02/19 06:27:54;;;;;;;;;;;;;;;29.41;43.48;100838.97;5094270;27;69892;-39
2023/02/19 06:30:24;;;;;;;;;;;;;;;29.39;43.21;100839.22;5097059;27;66560;-38
2023/02/19 06:32:54;;;;;;;;;;;;;;;29.37;42.37;100849.38;5086720;27;70505;-39
2023/02/19 06:35:25;;;;;;;;;;;;;;;29.36;42.01;100831.53;5094743;27;66374;-40
2023/02/19 06:37:55;;;;;;;;;;;;;;;29.35;41.71;100827.16;5099346;27;70337;-41
2023/02/19 06:40:26;;;;;;;;;;;;;;;29.36;41.65;100820.72;5073746;27;65261;-40
2023/02/19 06:42:56;;;;;;;;;;;;;;;29.35;41.36;100808.22;5093648;27;69710;-38
2023/02/19 06:45:26;;;;;;;;;;;;;;;29.33;41.37;100802.19;5095627;27;66633;-38
2023/02/19 06:47:56;;;;;;;;;;;;;;;29.35;41.43;100791.19;5088327;27;70256;-37
2023/02/19 06:50:26;;;;;;;;;;;;;;;29.33;40.62;100788.69;5091308;27;66424;-39
2023/02/19 06:52:57;;;;;;;;;;;;;;;29.32;40.71;100781.66;5098311;27;70445;-39
2023/02/19 06:55:27;;;;;;;;;;;;;;;29.34;40.92;100779.56;5093914;27;65424;-39
2023/02/19 06:57:57;;;;;;;;;;;;;;;29.35;40.34;100772.28;5070594;27;69800;-39
2023/02/19 07:00:28;;;;;;;;;;;;;;;29.34;40.32;100767.94;5071692;27;66696;-39
2023/02/19 07:02:59;;;;;;;;;;;;;;;29.31;40.41;100763.78;5074994;27;69738;-39
2023/02/19 07:05:31;;;;;;;;;;;;;;;29.32;40.28;100760.03;5092732;27;66479;-39
2023/02/19 07:08:02;;;;;;;;;;;;;;;29.30;39.88;100756.69;5090902;27;70606;-37
2023/02/19 07:10:32;;;;;;;;;;;;;;;29.31;39.96;100750.28;5092870;27;66659;-38
2023/02/19 07:13:02;;;;;;;;;;;;;;;29.31;39.91;100736.75;5090612;27;70611;-39
2023/02/19 07:15:33;;;;;;;;;;;;;;;29.35;39.68;100734.47;5090591;27;66637;-36
2023/02/19 07:18:05;;;;;;;;;;;;;;;29.32;39.74;100727.59;5095613;27;70605;-38
2023/02/19 07:20:36;;;;;;;;;;;;;;;29.36;39.87;100723.44;5082448;27;66244;-38
2023/02/19 07:23:06;;;;;;;;;;;;;;;29.32;39.53;100711.41;5075311;27;69537;-37
2023/02/19 07:25:36;;;;;;;;;;;;;;;29.37;40.02;100703.47;5097850;27;66043;-39
2023/02/19 07:28:06;;;;;;;;;;;;;;;29.40;39.94;100702.22;5098288;27;69990;-38
2023/02/19 07:30:37;;;;;;;;;;;;;;;29.42;39.86;100704.69;5096745;27;66802;-38
2023/02/19 07:33:07;;;;;;;;;;;;;;;29.42;39.89;100688.47;5103911;27;69372;-40
2023/02/19 07:35:43;;;;;;;;;;;;;;;29.40;39.36;100681.44;5076435;27;67219;-39
2023/02/19 07:38:17;;;;;;;;;;;;;;;29.44;39.81;100681.00;5096815;27;69593;-37
2023/02/19 07:41:05;;;;;;;;;;;;;;;29.46;39.19;100678.91;5088808;27;65656;-38
2023/02/19 07:43:37;;;;;;;;;;;;;;;29.45;39.74;100674.53;5074444;27;70371;-36
2023/02/19 07:46:09;;;;;;;;;;;;;;;29.44;39.62;100670.19;5071862;27;66750;-37
2023/02/19 07:48:40;;;;;;;;;;;;;;;29.49;39.25;100664.97;5074181;27;69764;-39
2023/02/19 07:51:15;;;;;;;;;;;;;;;29.49;39.11;100662.28;5094353;27;66457;-37
2023/02/19 07:53:45;;;;;;;;;;;;;;;29.50;38.82;100672.03;5075651;27;69939;-40
2023/02/19 07:56:17;;;;;;;;;;;;;;;29.50;39.19;100663.91;5087408;27;65759;-37
2023/02/19 07:58:47;;;;;;;;;;;;;;;29.50;39.30;100661.22;5085617;27;70245;-36
2023/02/19 08:02:58;;;;;;;;;;;;;;;29.54;38.94;100657.88;5095397;27;65398;-39
2023/02/19 08:04:10;;;;;;;;;;;;;;;29.57;39.46;100660.13;5089991;27;70441;-39
2023/02/19 08:06:40;;;;;;;;;;;;;;;29.56;38.92;100660.34;5067027;27;66465;-38
2023/02/19 08:09:11;;;;;;;;;;;;;;;29.55;38.27;100656.00;5088895;27;69830;-38
2023/02/19 08:14:30;;;;;;;;;;;;;;;29.57;38.33;100640.41;5088930;27;70055;-41
2023/02/19 08:17:00;;;;;;;;;;;;;;;29.61;38.41;100645.16;5073242;27;66308;-38
2023/02/19 08:19:30;;;;;;;;;;;;;;;29.63;38.06;100653.06;5091104;27;70303;-38
2023/02/19 08:22:01;;;;;;;;;;;;;;;29.64;38.45;100643.91;5086242;27;66662;-38
2023/02/19 08:24:32;;;;;;;;;;;;;;;29.66;37.86;100651.81;5068725;27;69731;-38
2023/02/19 08:27:02;;;;;;;;;;;;;;;29.66;38.46;100647.22;5091255;27;66393;-40
2023/02/19 08:29:33;;;;;;;;;;;;;;;29.64;37.98;100654.72;5088860;27;70181;-40
2023/02/19 08:32:04;;;;;;;;;;;;;;;29.63;38.08;100658.47;5086027;27;66111;-41
2023/02/19 08:34:35;;;;;;;;;;;;;;;29.61;38.60;100658.69;5092321;27;70331;-39
2023/02/19 08:37:05;;;;;;;;;;;;;;;29.62;38.76;100657.63;5092482;27;68645;-40
2023/02/19 08:39:35;;;;;;;;;;;;;;;29.60;38.25;100658.88;5092566;27;70019;-38
2023/02/19 08:42:05;;;;;;;;;;;;;;;29.61;38.66;100660.53;5092823;27;66827;-40
2023/02/19 08:44:35;;;;;;;;;;;;;;;29.74;39.26;100656.97;5092899;27;70593;-39
2023/02/19 08:47:06;;;;;;;;;;;;;;;29.68;41.06;100658.66;5065995;27;66581;-38
2023/02/19 08:49:37;;;;;;;;;;;;;;;29.77;42.81;100654.63;5089590;27;69837;-40
2023/02/19 08:52:07;;;;;;;;;;;;;;;29.94;47.44;100651.41;5091095;27;66822;-39
2023/02/19 08:54:37;;;;;;;;;;;;;;;30.11;49.74;100670.63;5073603;27;69685;-39
2023/02/19 08:57:07;;;;;;;;;;;;;;;30.40;49.11;100672.69;5077014;27;65294;-38
2023/02/19 08:59:38;;;;;;;;;;;;;;;30.61;50.29;100682.28;5097579;27;69718;-38
2023/02/19 09:02:09;;;;;;;;;;;;;;;30.77;51.00;100683.59;5083578;27;65522;-38
2023/02/19 09:04:39;;;;;;;;;;;;;;;30.90;51.60;100682.66;5099342;27;69809;-38
2023/02/19 09:07:11;;;;;;;;;;;;;;;31.01;52.84;100702.72;5080883;27;66776;-40
2023/02/19 09:09:41;;;;;;;;;;;;;;;31.10;52.99;100699.50;5096603;27;71106;-42
2023/02/19 09:12:12;;;;;;;;;;;;;;;31.17;53.43;100705.69;5067120;27;66330;-41
2023/02/19 09:14:42;;;;;;;;;;;;;;;31.25;53.74;100692.88;5100137;27;70143;-38
2023/02/19 09:17:12;;;;;;;;;;;;;;;31.30;54.17;100691.13;5084480;27;66623;-39
2023/02/19 09:19:42;;;;;;;;;;;;;;;31.36;54.40;100702.97;5095026;27;69410;-39
2023/02/19 09:22:12;;;;;;;;;;;;;;;31.41;54.17;100702.28;5074825;27;66274;-40
2023/02/19 09:24:43;;;;;;;;;;;;;;;31.45;54.55;100714.31;5090682;27;70054;-38
2023/02/19 09:27:14;;;;;;;;;;;;;;;31.42;56.20;100702.06;5094176;27;65316;-37
2023/02/19 09:29:45;;;;;;;;;;;;;;;31.41;58.01;100713.97;5096074;27;70162;-39
2023/02/19 09:32:15;;;;;;;;;;;;;;;31.35;58.05;100714.84;5071539;27;66401;-38
2023/02/19 09:34:48;;;;;;;;;;;;;;;31.26;58.14;100710.78;5097203;27;71014;-39
2023/02/19 09:37:18;;;;;;;;;;;;;;;31.20;58.81;100719.81;5088758;27;66398;-40
2023/02/19 09:39:48;;;;;;;;;;;;;;;31.21;58.79;100722.31;5094102;27;70344;-39
2023/02/19 09:42:23;;;;;;;;;;;;;;;31.20;59.40;100733.34;5090405;27;66752;-39
2023/02/19 09:44:54;;;;;;;;;;;;;;;31.25;59.32;100726.22;5092691;27;70506;-41
2023/02/19 09:47:26;;;;;;;;;;;;;;;31.27;59.55;100729.53;5096450;27;65198;-40
2023/02/19 09:50:03;;;;;;;;;;;;;;;31.27;59.92;100734.13;5092371;27;69385;-40
2023/02/19 09:52:33;;;;;;;;;;;;;;;31.29;59.85;100737.44;5091079;27;66972;-38
2023/02/19 09:55:12;;;;;;;;;;;;;;;31.29;60.02;100748.28;5091282;27;69367;-39
2023/02/19 09:57:43;;;;;;;;;;;;;;;31.32;60.35;100742.41;5096032;27;66798;-38
2023/02/19 10:00:13;;;;;;;;;;;;;;;31.38;60.08;100749.66;5095806;27;70526;-38
2023/02/19 10:02:43;;;;;;;;;;;;;;;31.40;60.44;100750.25;5095207;27;66575;-37
2023/02/19 10:05:15;;;;;;;;;;;;;;;31.45;60.52;100742.25;5076334;27;68934;-38
2023/02/19 10:07:48;;;;;;;;;;;;;;;31.44;61.21;100746.03;5096408;27;66746;-39
2023/02/19 10:10:21;;;;;;;;;;;;;;;31.51;60.35;100752.22;5099959;27;70286;-41
2023/02/19 10:12:54;;;;;;;;;;;;;;;31.58;59.60;100752.13;5085591;27;66397;-41
2023/02/19 10:15:24;;;;;;;;;;;;;;;31.63;58.88;100752.25;5091011;27;70323;-42
2023/02/19 10:17:55;;;;;;;;;;;;;;;31.66;58.61;100742.84;5091659;27;65572;-41
2023/02/19 10:20:26;;;;;;;;;;;;;;;31.68;58.96;100743.41;5092579;27;69131;-44
2023/02/19 10:23:04;;;;;;;;;;;;;;;31.66;59.17;100737.44;5098845;27;66785;-41
2023/02/19 10:25:34;;;;;;;;;;;;;;;31.68;58.55;100752.41;5092068;27;69478;-41
2023/02/19 10:28:09;;;;;;;;;;;;;;;31.69;58.19;100747.81;5092910;27;66881;-40
2023/02/19 10:30:39;;;;;;;;;;;;;;;31.70;58.32;100746.75;5095089;27;70353;-42
2023/02/19 10:33:11;;;;;;;;;;;;;;;31.72;58.21;100758.19;5092723;27;66460;-42
2023/02/19 10:36:00;;;;;;;;;;;;;;;31.72;58.05;100766.34;5096484;27;69513;-41
2023/02/19 10:38:36;;;;;;;;;;;;;;;31.71;58.00;100779.06;5096013;27;66596;-41
2023/02/19 10:41:11;;;;;;;;;;;;;;;31.71;58.24;100778.25;5097059;27;69737;-40
2023/02/19 10:43:43;;;;;;;;;;;;;;;31.50;60.35;100780.34;5092150;27;67128;-40
2023/02/19 10:46:18;;;;;;;;;;;;;;;31.38;61.01;100779.47;5095401;27;69653;-42
2023/02/19 10:48:52;;;;;;;;;;;;;;;31.31;61.72;100786.81;5079552;27;66520;-40
2023/02/19 10:51:34;;;;;;;;;;;;;;;31.25;62.23;100785.81;5094289;27;69242;-41
2023/02/19 10:54:24;;;;;;;;;;;;;;;31.18;62.27;100779.66;5070705;27;66664;-42
2023/02/19 10:56:54;;;;;;;;;;;;;;;31.14;62.50;100767.59;5075168;27;70629;-40
2023/02/19 10:59:25;;;;;;;;;;;;;;;31.12;62.86;100778.69;5094593;27;66270;-40
2023/02/19 11:02:00;;;;;;;;;;;;;;;31.12;62.97;100791.38;5091729;27;70215;-40
2023/02/19 11:04:34;;;;;;;;;;;;;;;31.09;63.14;100792.69;5088541;27;67058;-40
2023/02/19 11:07:13;;;;;;;;;;;;;;;31.07;63.20;100789.38;5091555;27;70204;-40
2023/02/19 11:09:45;;;;;;;;;;;;;;;31.07;63.40;100794.78;5088422;27;67349;-40
2023/02/19 11:12:24;;;;;;;;;;;;;;;31.05;63.41;100798.75;5085201;27;70236;-38
2023/02/19 11:14:54;;;;;;;;;;;;;;;31.07;63.04;100805.63;5089775;27;65277;-39
2023/02/19 11:17:25;;;;;;;;;;;;;;;31.08;63.56;100809.16;5077422;27;69910;-40
2023/02/19 11:20:01;;;;;;;;;;;;;;;31.06;64.42;100822.91;5094300;27;65853;-42
2023/02/19 11:22:38;;;;;;;;;;;;;;;31.05;64.37;100826.69;5086662;27;69962;-42
2023/02/19 11:25:15;;;;;;;;;;;;;;;31.06;64.32;100824.78;5088833;27;66962;-41
2023/02/19 11:28:05;;;;;;;;;;;;;;;31.07;64.31;100821.88;5093323;27;69535;-41
2023/02/19 11:30:37;;;;;;;;;;;;;;;31.05;64.71;100821.25;5094227;27;66087;-41
2023/02/19 11:33:20;;;;;;;;;;;;;;;31.06;64.57;100820.19;5088896;27;70334;-40
2023/02/19 11:35:58;;;;;;;;;;;;;;;31.07;64.87;100826.47;5093137;27;66703;-41
2023/02/19 11:38:29;;;;;;;;;;;;;;;31.03;64.96;100823.34;5095941;27;70170;-41
2023/02/19 11:41:05;;;;;;;;;;;;;;;31.03;65.01;100815.22;5087250;27;65739;-51
2023/02/19 11:43:54;;;;;;;;;;;;;;;31.03;65.22;100830.66;5068982;27;69918;-42
2023/02/19 11:46:43;;;;;;;;;;;;;;;31.01;65.05;100833.59;5075072;27;65394;-40
2023/02/19 11:49:16;;;;;;;;;;;;;;;31.01;64.72;100839.03;5086452;27;70302;-39
2023/02/19 11:51:49;;;;;;;;;;;;;;;31.00;65.04;100836.53;5090323;27;66845;-41
2023/02/19 11:54:20;;;;;;;;;;;;;;;30.98;64.85;100834.06;5089851;27;70475;-38
2023/02/19 11:57:16;;;;;;;;;;;;;;;31.03;63.81;100849.63;5090887;27;66240;-41
2023/02/19 11:59:54;;;;;;;;;;;;;;;31.09;63.12;100846.88;5089304;27;70082;-39
2023/02/19 12:02:27;;;;;;;;;;;;;;;31.14;63.05;100844.28;5091777;27;65748;-42
2023/02/19 12:05:07;;;;;;;;;;;;;;;31.15;62.41;100843.25;5095996;27;69491;-41
2023/02/19 12:08:13;;;;;;;;;;;;;;;31.19;62.23;100850.94;5079920;27;66517;-41
2023/02/19 12:11:02;;;;;;;;;;;;;;;31.20;62.28;100847.16;4979604;28;71051;-42
2023/02/19 12:13:32;;;;;;;;;;;;;;;31.22;62.06;100855.91;5084622;27;66652;-40
2023/02/19 12:16:22;;;;;;;;;;;;;;;31.22;61.41;100853.19;5088447;27;69677;-41
2023/02/19 12:19:04;;;;;;;;;;;;;;;31.23;61.44;100857.56;5092290;27;66840;-41
2023/02/19 12:21:50;;;;;;;;;;;;;;;31.22;61.57;100855.91;5095781;27;70286;-40
2023/02/19 12:24:38;;;;;;;;;;;;;;;31.21;61.18;100865.94;5096426;27;67189;-41
2023/02/19 12:27:28;;;;;;;;;;;;;;;31.20;61.13;100875.09;5096268;27;70697;-41
2023/02/19 12:30:17;;;;;;;;;;;;;;;31.20;61.23;100879.69;5090218;27;67018;-40
2023/02/19 12:33:05;;;;;;;;;;;;;;;31.17;61.23;100878.25;5097372;27;70588;-41
2023/02/19 12:36:04;;;;;;;;;;;;;;;31.15;61.15;100883.91;5096849;27;66117;-41
2023/02/19 12:38:50;;;;;;;;;;;;;;;31.14;60.89;100890.34;5076925;27;70537;-41
2023/02/19 12:41:40;;;;;;;;;;;;;;;31.14;60.91;100874.09;5099575;27;66567;-40
2023/02/19 12:44:16;;;;;;;;;;;;;;;31.14;61.15;100893.06;5088760;27;69391;-43
2023/02/19 12:46:52;;;;;;;;;;;;;;;31.12;60.63;100878.94;5098001;27;66611;-40
2023/02/19 12:49:29;;;;;;;;;;;;;;;31.12;60.32;100891.63;5081099;27;69579;-40
2023/02/19 12:52:02;;;;;;;;;;;;;;;31.12;60.64;100888.91;5098138;27;65981;-40
2023/02/19 12:54:39;;;;;;;;;;;;;;;31.10;60.76;100891.88;5084189;27;70666;-41
2023/02/19 12:57:38;;;;;;;;;;;;;;;31.09;60.51;100890.22;5077305;27;66936;-40
2023/02/19 13:00:27;;;;;;;;;;;;;;;31.08;60.44;100899.38;5082119;27;70791;-39
2023/02/19 13:03:09;;;;;;;;;;;;;;;31.08;60.57;100904.78;5097221;27;66295;-40
2023/02/19 13:05:54;;;;;;;;;;;;;;;31.06;60.24;100901.47;5066844;27;69866;-39
2023/02/19 13:08:31;;;;;;;;;;;;;;;31.05;60.49;100905.25;5099094;27;66827;-41
2023/02/19 13:11:13;;;;;;;;;;;;;;;31.05;60.25;100904.41;5081742;27;70170;-41
2023/02/19 13:13:48;;;;;;;;;;;;;;;31.02;60.60;100894.84;5093509;27;66956;-42
2023/02/19 13:16:19;;;;;;;;;;;;;;;31.02;60.37;100902.97;5068943;27;69863;-44
2023/02/19 13:18:52;;;;;;;;;;;;;;;31.00;60.65;100905.06;5095261;27;66343;-40
2023/02/19 13:24:19;;;;;;;;;;;;;;;30.99;60.83;100914.25;5094656;27;67277;-41
2023/02/19 13:26:58;;;;;;;;;;;;;;;30.99;60.38;100921.56;5096955;27;70658;-41
2023/02/19 13:29:37;;;;;;;;;;;;;;;30.96;60.83;100922.84;5097677;27;65661;-39
2023/02/19 13:32:17;;;;;;;;;;;;;;;30.96;60.46;100922.00;5093822;27;70005;-40
2023/02/19 13:35:14;;;;;;;;;;;;;;;30.94;60.55;100930.34;5102127;27;66380;-41
2023/02/19 13:37:47;;;;;;;;;;;;;;;30.93;60.21;100931.41;5095717;27;69837;-40